createdAt,value
2023-10-23T00:01:08.564Z,3.97
2023-10-23T00:03:36.490Z,2.83
2023-10-23T00:06:04.615Z,2.40
2023-10-23T00:08:32.430Z,3.45
2023-10-23T00:11:00.197Z,2.92
2023-10-23T00:13:27.946Z,3.00
2023-10-23T00:15:55.939Z,2.58
2023-10-23T00:18:23.789Z,2.97
2023-10-23T00:20:51.667Z,3.03
2023-10-23T00:23:19.431Z,2.60
2023-10-23T00:25:47.301Z,3.03
2023-10-23T00:28:15.045Z,3.47
2023-10-23T00:30:43.376Z,2.87
2023-10-23T00:33:11.532Z,3.30
2023-10-23T00:35:40.383Z,2.90
2023-10-23T00:38:08.098Z,2.87
2023-10-23T00:40:35.912Z,3.40
2023-10-23T00:43:18.918Z,3.57
2023-10-23T00:46:03.253Z,3.67
2023-10-23T00:48:31.007Z,3.10
2023-10-23T00:51:00.120Z,3.10
2023-10-23T00:53:29.619Z,4.30
2023-10-23T00:55:58.378Z,5.80
2023-10-23T00:58:26.793Z,6.57
2023-10-23T01:00:58.186Z,5.47
2023-10-23T01:03:27.279Z,6.07
2023-10-23T01:05:55.267Z,6.80
2023-10-23T01:08:23.002Z,4.77
2023-10-23T01:10:50.781Z,4.70
2023-10-23T01:13:19.168Z,4.57
2023-10-23T01:15:46.962Z,5.22
2023-10-23T01:18:14.799Z,6.63
2023-10-23T01:20:43.028Z,7.50
2023-10-23T01:23:10.840Z,7.80
2023-10-23T01:25:39.435Z,7.38
2023-10-23T01:28:07.200Z,5.95
2023-10-23T01:30:35.168Z,6.40
2023-10-23T01:33:02.953Z,4.87
2023-10-23T01:35:30.780Z,5.23
2023-10-23T01:37:58.508Z,4.27
2023-10-23T01:40:26.269Z,4.25
2023-10-23T01:42:54.003Z,3.67
2023-10-23T01:45:21.793Z,5.10
2023-10-23T01:47:49.594Z,3.97
2023-10-23T01:50:17.407Z,3.10
2023-10-23T01:52:46.214Z,3.92
2023-10-23T01:55:14.039Z,3.10
2023-10-23T01:57:41.971Z,3.42
2023-10-23T02:00:11.723Z,2.75
2023-10-23T02:02:43.202Z,3.20
2023-10-23T02:05:11.245Z,2.50
2023-10-23T02:07:39.103Z,3.25
2023-10-23T02:10:07.377Z,3.15
2023-10-23T02:12:35.185Z,3.60
2023-10-23T02:15:05.261Z,3.50
2023-10-23T02:17:33.248Z,3.53
2023-10-23T02:20:01.270Z,3.03
2023-10-23T02:22:29.039Z,3.53
2023-10-23T02:24:56.819Z,4.37
2023-10-23T02:27:24.679Z,4.30
2023-10-23T02:29:52.505Z,5.07
2023-10-23T02:32:20.325Z,5.45
2023-10-23T02:34:49.428Z,5.23
2023-10-23T02:37:17.528Z,6.22
2023-10-23T02:39:45.372Z,5.40
2023-10-23T02:42:13.258Z,6.53
2023-10-23T02:44:40.973Z,5.88
2023-10-23T02:47:08.823Z,5.07
2023-10-23T02:49:36.617Z,4.00
2023-10-23T02:52:04.919Z,3.30
2023-10-23T02:54:32.664Z,3.57
2023-10-23T02:57:00.540Z,3.13
2023-10-23T02:59:28.396Z,3.60
2023-10-23T03:01:56.550Z,3.10
2023-10-23T03:04:24.397Z,3.00
2023-10-23T03:06:52.261Z,3.53
2023-10-23T03:09:20.030Z,3.10
2023-10-23T03:11:47.852Z,3.00
2023-10-23T03:14:15.814Z,3.00
2023-10-23T03:16:43.833Z,3.17
2023-10-23T03:19:11.618Z,3.00
2023-10-23T03:21:39.387Z,3.80
2023-10-23T03:24:07.606Z,4.07
2023-10-23T03:26:35.456Z,3.33
2023-10-23T03:29:04.603Z,4.03
2023-10-23T03:31:34.149Z,3.33
2023-10-23T03:34:02.066Z,3.87
2023-10-23T03:36:29.945Z,4.63
2023-10-23T03:38:57.768Z,3.83
2023-10-23T03:41:27.056Z,3.53
2023-10-23T03:43:54.870Z,4.28
2023-10-23T03:46:23.277Z,4.40
2023-10-23T03:48:53.392Z,3.90
2023-10-23T03:51:21.420Z,4.78
2023-10-23T03:53:49.205Z,4.23
2023-10-23T03:56:16.997Z,3.97
2023-10-23T03:58:45.867Z,3.90
2023-10-23T04:01:13.925Z,4.00
2023-10-23T04:03:41.754Z,4.50
2023-10-23T04:06:09.562Z,4.63
2023-10-23T04:08:37.279Z,5.60
2023-10-23T04:11:05.262Z,4.10
2023-10-23T04:13:35.507Z,4.45
2023-10-23T04:16:03.917Z,4.00
2023-10-23T04:18:31.911Z,3.53
2023-10-23T04:21:04.065Z,4.07
2023-10-23T04:23:32.534Z,4.70
2023-10-23T04:26:00.486Z,4.23
2023-10-23T04:28:28.385Z,3.80
2023-10-23T04:30:56.878Z,4.68
2023-10-23T04:33:24.990Z,4.27
2023-10-23T04:35:53.808Z,4.13
2023-10-23T04:38:21.872Z,3.77
2023-10-23T04:40:51.564Z,3.73
2023-10-23T04:43:19.498Z,4.90
2023-10-23T04:45:47.445Z,4.97
2023-10-23T04:48:15.354Z,5.23
2023-10-23T04:50:43.480Z,4.10
2023-10-23T04:53:11.769Z,4.87
2023-10-23T04:55:40.542Z,4.90
2023-10-23T04:58:09.052Z,4.67
2023-10-23T05:00:37.733Z,3.80
2023-10-23T05:03:05.808Z,4.40
2023-10-23T05:05:33.968Z,5.00
2023-10-23T05:08:01.914Z,4.45
2023-10-23T05:10:29.711Z,5.03
2023-10-23T05:12:58.308Z,4.25
2023-10-23T05:15:26.141Z,4.57
2023-10-23T05:17:53.958Z,3.70
2023-10-23T05:20:22.207Z,3.78
2023-10-23T05:22:49.960Z,4.67
2023-10-23T05:25:17.762Z,4.50
2023-10-23T05:27:45.565Z,3.63
2023-10-23T05:30:13.439Z,4.87
2023-10-23T05:32:41.293Z,4.53
2023-10-23T05:35:09.421Z,5.30
2023-10-23T05:37:37.535Z,4.17
2023-10-23T05:40:06.160Z,4.00
2023-10-23T05:42:34.120Z,4.25
2023-10-23T05:45:04.057Z,3.93
2023-10-23T05:47:32.024Z,3.73
2023-10-23T05:49:59.809Z,4.05
2023-10-23T05:52:27.630Z,4.03
2023-10-23T05:54:55.426Z,5.18
2023-10-23T05:57:23.309Z,3.92
2023-10-23T05:59:51.095Z,4.22
2023-10-23T06:02:18.904Z,3.95
2023-10-23T06:04:46.778Z,4.22
2023-10-23T06:07:14.815Z,3.95
2023-10-23T06:09:42.812Z,3.53
2023-10-23T06:12:12.689Z,3.90
2023-10-23T06:14:40.428Z,3.42
2023-10-23T06:17:08.825Z,3.50
2023-10-23T06:19:37.991Z,3.90
2023-10-23T06:22:06.080Z,3.63
2023-10-23T06:24:33.886Z,3.55
2023-10-23T06:27:01.701Z,5.07
2023-10-23T06:29:29.476Z,4.57
2023-10-23T06:31:57.945Z,3.53
2023-10-23T06:34:25.767Z,3.92
2023-10-23T06:36:53.609Z,3.35
2023-10-23T06:39:21.384Z,3.95
2023-10-23T06:41:50.778Z,3.97
2023-10-23T06:44:20.422Z,4.55
2023-10-23T06:46:48.303Z,4.53
2023-10-23T06:49:16.077Z,4.53
2023-10-23T06:51:43.915Z,3.70
2023-10-23T06:54:12.438Z,3.33
2023-10-23T06:56:40.288Z,2.92
2023-10-23T06:59:08.066Z,3.47
2023-10-23T07:01:44.503Z,3.15
2023-10-23T07:04:13.336Z,4.30
2023-10-23T07:06:41.201Z,3.08
2023-10-23T07:09:09.075Z,4.43
2023-10-23T07:11:36.856Z,5.05
2023-10-23T07:14:04.739Z,4.57
2023-10-23T07:16:32.583Z,5.13
2023-10-23T07:19:00.485Z,5.13
2023-10-23T07:21:28.688Z,4.82
2023-10-23T07:23:56.559Z,4.00
2023-10-23T07:26:24.305Z,4.63
2023-10-23T07:28:52.136Z,4.60
2023-10-23T07:31:19.966Z,4.95
2023-10-23T07:33:47.842Z,5.65
2023-10-23T07:36:16.177Z,5.70
2023-10-23T07:38:44.543Z,5.82
2023-10-23T07:41:13.150Z,7.88
2023-10-23T07:43:42.497Z,7.75
2023-10-23T07:46:16.654Z,6.75
2023-10-23T07:48:46.179Z,5.97
2023-10-23T07:51:14.340Z,5.72
2023-10-23T07:53:42.197Z,5.32
2023-10-23T07:56:10.044Z,5.85
2023-10-23T07:58:37.918Z,5.32
2023-10-23T08:01:06.733Z,5.22
2023-10-23T08:03:35.356Z,6.20
2023-10-23T08:06:04.686Z,4.97
2023-10-23T08:08:36.132Z,4.38
2023-10-23T08:11:04.962Z,3.92
2023-10-23T08:13:33.132Z,3.67
2023-10-23T08:16:01.729Z,2.85
2023-10-23T08:18:39.033Z,3.97
2023-10-23T08:21:15.868Z,3.70
2023-10-23T08:23:55.336Z,5.53
2023-10-23T08:26:23.510Z,5.78
2023-10-23T08:31:37.249Z,5.10
2023-10-23T08:34:07.778Z,5.68
2023-10-23T08:36:35.993Z,4.53
2023-10-23T08:39:06.591Z,5.43
2023-10-23T08:41:35.792Z,4.43
2023-10-23T08:44:04.421Z,5.38
2023-10-23T08:46:34.149Z,4.05
2023-10-23T08:49:02.822Z,4.47
2023-10-23T08:51:31.442Z,4.03
2023-10-23T08:54:23.260Z,4.13
2023-10-23T08:56:58.555Z,3.55
2023-10-23T08:59:26.405Z,3.00
2023-10-23T09:02:01.465Z,2.90
2023-10-23T09:04:30.338Z,3.60
2023-10-23T09:07:00.840Z,3.50
2023-10-23T09:09:29.842Z,3.55
2023-10-23T09:11:57.654Z,3.22
2023-10-23T09:14:29.583Z,3.53
2023-10-23T09:16:57.692Z,3.33
2023-10-23T09:19:40.225Z,3.38
2023-10-23T09:22:09.366Z,3.38
2023-10-23T09:24:37.886Z,3.65
2023-10-23T09:27:05.810Z,3.03
2023-10-23T09:29:36.183Z,3.72
2023-10-23T09:32:06.499Z,3.03
2023-10-23T09:34:34.665Z,2.75
2023-10-23T09:37:02.513Z,2.97
2023-10-23T09:39:30.419Z,2.70
2023-10-23T09:41:58.193Z,2.47
2023-10-23T09:44:26.037Z,2.70
2023-10-23T09:46:54.044Z,2.20
2023-10-23T09:49:22.268Z,2.17
2023-10-23T09:51:52.257Z,2.13
2023-10-23T09:54:23.151Z,2.90
2023-10-23T09:56:54.464Z,2.35
2023-10-23T09:59:48.810Z,2.60
2023-10-23T10:02:16.757Z,3.03
2023-10-23T10:05:06.845Z,3.00
2023-10-23T10:08:05.410Z,2.70
2023-10-23T10:10:36.111Z,2.70
2023-10-23T10:13:04.143Z,2.10
2023-10-23T10:15:32.658Z,2.42
2023-10-23T10:18:00.572Z,2.95
2023-10-23T10:20:28.452Z,2.10
2023-10-23T10:23:05.298Z,2.22
2023-10-23T10:25:33.206Z,2.97
2023-10-23T10:28:04.338Z,2.60
2023-10-23T10:30:46.475Z,2.45
2023-10-23T10:34:25.420Z,2.20
2023-10-23T10:36:09.197Z,2.30
2023-10-23T10:38:37.198Z,2.22
2023-10-23T10:41:06.619Z,2.20
2023-10-23T10:43:36.020Z,2.53
2023-10-23T10:46:07.107Z,1.70
2023-10-23T10:48:45.380Z,2.78
2023-10-23T10:51:19.580Z,2.40
2023-10-23T10:53:47.723Z,2.45
2023-10-23T10:56:15.930Z,2.35
2023-10-23T10:58:44.318Z,1.77
2023-10-23T11:01:12.401Z,2.30
2023-10-23T11:03:42.612Z,2.45
2023-10-23T11:06:11.806Z,2.40
2023-10-23T11:08:42.707Z,2.33
2023-10-23T11:11:10.854Z,2.53
2023-10-23T11:13:38.702Z,2.40
2023-10-23T11:16:06.912Z,2.28
2023-10-23T11:18:34.740Z,2.05
2023-10-23T11:21:02.664Z,2.05
2023-10-23T11:23:31.067Z,2.53
2023-10-23T11:25:58.954Z,2.53
2023-10-23T11:28:26.829Z,2.30
2023-10-23T11:30:58.854Z,2.40
2023-10-23T11:33:26.852Z,2.30
2023-10-23T11:35:55.012Z,2.40
2023-10-23T11:38:24.205Z,2.33
2023-10-23T11:40:52.173Z,2.40
2023-10-23T11:43:20.313Z,2.63
2023-10-23T11:45:48.485Z,2.17
2023-10-23T11:48:16.415Z,2.13
2023-10-23T11:50:44.323Z,2.30
2023-10-23T11:53:12.254Z,2.40
2023-10-23T11:55:40.110Z,1.75
2023-10-23T11:58:08.034Z,2.05
2023-10-23T12:00:36.567Z,2.05
2023-10-23T12:03:05.954Z,2.28
2023-10-23T12:05:33.951Z,2.72
2023-10-23T12:08:01.801Z,2.40
2023-10-23T12:10:29.926Z,1.98
2023-10-23T12:12:57.875Z,2.28
2023-10-23T12:15:25.822Z,2.40
2023-10-23T12:17:53.687Z,2.35
2023-10-23T12:20:24.323Z,2.45
2023-10-23T12:22:53.152Z,1.92
2023-10-23T12:25:21.415Z,1.77
2023-10-23T12:27:49.347Z,2.15
2023-10-23T12:30:27.117Z,2.80
2023-10-23T12:33:20.997Z,1.75
2023-10-23T12:35:50.143Z,2.63
2023-10-23T12:38:19.239Z,2.03
2023-10-23T12:40:47.593Z,2.60
2023-10-23T12:43:15.755Z,2.50
2023-10-23T12:45:44.071Z,3.30
2023-10-23T12:48:12.035Z,5.03
2023-10-23T12:50:39.930Z,6.95
2023-10-23T12:53:11.156Z,6.72
2023-10-23T12:55:39.277Z,3.30
2023-10-23T12:58:07.147Z,2.72
2023-10-23T13:00:34.808Z,4.45
2023-10-23T13:03:02.681Z,2.58
2023-10-23T13:05:30.610Z,2.35
2023-10-23T13:07:58.440Z,1.70
2023-10-23T13:10:26.470Z,2.17
2023-10-23T13:12:54.376Z,2.22
2023-10-23T13:15:22.264Z,2.10
2023-10-23T13:17:50.116Z,2.15
2023-10-23T13:21:31.046Z,2.03
2023-10-23T13:23:05.765Z,2.38
2023-10-23T13:25:35.932Z,2.05
2023-10-23T13:28:05.918Z,1.65
2023-10-23T13:30:34.018Z,2.08
2023-10-23T13:33:02.309Z,2.33
2023-10-23T13:35:30.215Z,2.00
2023-10-23T13:37:58.043Z,2.00
2023-10-23T13:40:25.886Z,2.58
2023-10-23T13:42:54.221Z,1.80
2023-10-23T13:45:22.074Z,1.73
2023-10-23T13:47:49.835Z,1.70
2023-10-23T13:50:17.658Z,2.42
2023-10-23T13:52:45.448Z,1.98
2023-10-23T13:55:13.289Z,2.35
2023-10-23T13:57:41.053Z,1.95
2023-10-23T14:00:10.994Z,2.05
2023-10-23T14:02:41.994Z,2.30
2023-10-23T14:05:09.871Z,2.55
2023-10-23T14:07:37.777Z,2.08
2023-10-23T14:10:06.204Z,2.70
2023-10-23T14:12:34.072Z,2.83
2023-10-23T14:15:02.428Z,2.42
2023-10-23T14:17:33.277Z,2.30
2023-10-23T14:20:01.260Z,2.55
2023-10-23T14:22:29.105Z,3.13
2023-10-23T14:24:57.351Z,2.60
2023-10-23T14:27:25.495Z,3.13
2023-10-23T14:29:53.359Z,2.75
2023-10-23T14:32:21.749Z,5.25
2023-10-23T14:34:49.743Z,5.82
2023-10-23T14:37:17.641Z,6.85
2023-10-23T14:39:45.884Z,7.28
2023-10-23T14:42:13.714Z,5.25
2023-10-23T14:44:41.489Z,3.90
2023-10-23T14:47:10.132Z,4.15
2023-10-23T14:49:38.266Z,4.40
2023-10-23T14:52:06.335Z,3.35
2023-10-23T14:54:34.229Z,3.40
2023-10-23T14:57:03.921Z,3.50
2023-10-23T14:59:31.752Z,3.85
2023-10-23T15:02:00.094Z,4.47
2023-10-23T15:04:28.159Z,4.50
2023-10-23T15:06:56.050Z,4.55
2023-10-23T15:09:23.867Z,5.10
2023-10-23T15:11:51.756Z,2.70
2023-10-23T15:14:19.542Z,2.70
2023-10-23T15:16:47.699Z,3.03
2023-10-23T15:19:15.769Z,3.60
2023-10-23T15:21:43.804Z,2.70
2023-10-23T15:24:12.129Z,1.95
2023-10-23T15:26:40.021Z,2.45
2023-10-23T15:29:08.591Z,2.30
2023-10-23T15:31:36.684Z,1.95
2023-10-23T15:34:04.660Z,2.00
2023-10-23T15:36:32.652Z,2.78
2023-10-23T15:39:00.425Z,2.83
2023-10-23T15:41:28.345Z,1.95
2023-10-23T15:43:56.958Z,2.03
2023-10-23T15:46:25.340Z,2.15
2023-10-23T15:48:53.220Z,2.50
2023-10-23T15:51:21.063Z,2.75
2023-10-23T15:53:49.080Z,2.88
2023-10-23T15:56:16.939Z,2.78
2023-10-23T15:58:44.880Z,3.33
2023-10-23T16:01:12.776Z,2.50
2023-10-23T16:03:40.864Z,2.88
2023-10-23T16:06:09.670Z,3.10
2023-10-23T16:08:38.378Z,2.55
2023-10-23T16:11:06.394Z,3.30
2023-10-23T16:13:38.150Z,2.90
2023-10-23T16:16:16.667Z,2.72
2023-10-23T16:18:45.808Z,2.90
2023-10-23T16:21:14.471Z,2.72
2023-10-23T16:23:42.464Z,3.67
2023-10-23T16:26:11.398Z,3.65
2023-10-23T16:28:40.092Z,3.58
2023-10-23T16:31:13.907Z,4.13
2023-10-23T16:33:42.298Z,3.78
2023-10-23T16:36:10.288Z,3.83
2023-10-23T16:38:38.331Z,4.55
2023-10-23T16:41:06.289Z,4.85
2023-10-23T16:43:40.979Z,4.60
2023-10-23T16:46:09.385Z,4.28
2023-10-23T16:48:37.275Z,4.43
2023-10-23T16:51:05.560Z,5.03
2023-10-23T16:53:35.724Z,5.38
2023-10-23T16:56:04.811Z,5.50
2023-10-23T16:58:33.001Z,4.75
2023-10-23T17:01:05.091Z,5.00
2023-10-23T17:03:36.373Z,4.30
2023-10-23T17:06:10.564Z,3.78
2023-10-23T17:08:38.581Z,3.70
2023-10-23T17:11:08.657Z,4.30
2023-10-23T17:13:37.342Z,4.20
2023-10-23T17:16:08.436Z,4.00
2023-10-23T17:18:36.555Z,5.13
2023-10-23T17:21:04.752Z,3.90
2023-10-23T17:23:33.102Z,4.28
2023-10-23T17:26:01.718Z,4.50
2023-10-23T17:28:29.760Z,4.43
2023-10-23T17:31:00.370Z,4.15
2023-10-23T17:33:31.674Z,4.97
2023-10-23T17:36:00.085Z,5.03
2023-10-23T17:38:28.129Z,4.38
2023-10-23T17:40:58.854Z,5.47
2023-10-23T17:43:26.835Z,5.55
2023-10-23T17:45:55.303Z,5.43
2023-10-23T17:48:23.369Z,5.22
2023-10-23T17:50:53.034Z,4.22
2023-10-23T17:53:21.090Z,4.25
2023-10-23T17:55:49.165Z,4.53
2023-10-23T17:58:17.229Z,4.20
2023-10-23T18:00:45.115Z,4.30
2023-10-23T18:03:13.076Z,6.05
2023-10-23T18:05:41.114Z,9.40
2023-10-23T18:08:09.283Z,11.27
2023-10-23T18:10:39.043Z,9.73
2023-10-23T18:13:07.324Z,8.73
2023-10-23T18:15:35.254Z,9.07
2023-10-23T18:18:03.320Z,8.90
2023-10-23T18:20:31.637Z,9.98
2023-10-23T18:23:00.637Z,6.35
2023-10-23T18:25:28.889Z,7.43
2023-10-23T18:27:57.019Z,9.40
2023-10-23T18:30:26.774Z,9.77
2023-10-23T18:32:54.865Z,9.23
2023-10-23T18:35:22.731Z,7.73
2023-10-23T18:37:50.847Z,6.83
2023-10-23T18:40:18.998Z,5.68
2023-10-23T18:42:47.589Z,5.67
2023-10-23T18:45:15.642Z,5.30
2023-10-23T18:47:43.855Z,4.70
2023-10-23T18:50:11.888Z,4.50
2023-10-23T18:52:39.745Z,5.10
2023-10-23T18:55:08.385Z,4.97
2023-10-23T18:57:36.881Z,4.70
2023-10-23T19:00:05.252Z,3.88
2023-10-23T19:02:33.374Z,5.90
2023-10-23T19:05:01.433Z,6.28
2023-10-23T19:07:29.427Z,5.37
2023-10-23T19:09:58.254Z,4.85
2023-10-23T19:12:26.129Z,3.80
2023-10-23T19:14:54.129Z,3.60
2023-10-23T19:17:36.836Z,6.18
2023-10-23T19:20:09.036Z,5.05
2023-10-23T19:22:38.629Z,4.23
2023-10-23T19:25:07.625Z,3.88
2023-10-23T19:27:35.947Z,4.63
2023-10-23T19:30:05.242Z,7.28
2023-10-23T19:32:33.318Z,8.75
2023-10-23T19:35:01.480Z,8.43
2023-10-23T19:37:29.738Z,11.77
2023-10-23T19:39:59.422Z,11.00
2023-10-23T19:42:27.343Z,8.93
2023-10-23T19:44:55.576Z,6.47
2023-10-23T19:47:23.717Z,4.22
2023-10-23T19:49:51.890Z,4.60
2023-10-23T19:52:19.675Z,6.22
2023-10-23T19:54:48.834Z,6.05
2023-10-23T19:57:18.618Z,4.53
2023-10-23T19:59:46.550Z,4.33
2023-10-23T20:02:14.585Z,3.35
2023-10-23T20:04:42.668Z,3.87
2023-10-23T20:07:10.767Z,4.97
2023-10-23T20:09:38.811Z,3.17
2023-10-23T20:12:06.854Z,2.57
2023-10-23T20:14:34.730Z,3.07
2023-10-23T20:17:02.610Z,4.27
2023-10-23T20:19:30.448Z,4.77
2023-10-23T20:21:59.338Z,5.00
2023-10-23T20:24:27.416Z,4.70
2023-10-23T20:26:55.640Z,4.83
2023-10-23T20:29:23.477Z,6.03
2023-10-23T20:31:51.403Z,5.60
2023-10-23T20:34:19.357Z,5.37
2023-10-23T20:36:47.363Z,4.10
2023-10-23T20:39:15.106Z,4.80
2023-10-23T20:41:42.875Z,3.87
2023-10-23T20:44:10.703Z,4.03
2023-10-23T20:46:38.461Z,3.77
2023-10-23T20:49:07.028Z,3.80
2023-10-23T20:51:34.782Z,3.43
2023-10-23T20:54:02.668Z,3.00
2023-10-23T20:56:30.420Z,4.03
2023-10-23T20:59:00.728Z,3.23
2023-10-23T21:01:29.301Z,3.87
2023-10-23T21:03:57.197Z,3.10
2023-10-23T21:06:26.591Z,3.37
2023-10-23T21:08:55.528Z,3.37
2023-10-23T21:11:24.020Z,2.73
2023-10-23T21:13:51.883Z,2.73
2023-10-23T21:16:19.695Z,3.03
2023-10-23T21:18:47.560Z,2.67
2023-10-23T21:21:15.287Z,3.50
2023-10-23T21:23:43.119Z,2.90
2023-10-23T21:26:10.970Z,3.03
2023-10-23T21:28:40.601Z,2.77
2023-10-23T21:31:10.163Z,3.73
2023-10-23T21:33:38.082Z,2.60
2023-10-23T21:36:06.314Z,3.13
2023-10-23T21:38:34.127Z,2.80
2023-10-23T21:41:04.335Z,3.17
2023-10-23T21:43:32.213Z,3.07
2023-10-23T21:46:15.525Z,2.67
2023-10-23T21:48:45.556Z,2.87
2023-10-23T21:51:13.366Z,2.67
2023-10-23T21:53:41.287Z,3.17
2023-10-23T21:56:09.812Z,3.67
2023-10-23T21:59:07.549Z,4.17
2023-10-23T22:01:25.807Z,3.23
2023-10-23T22:03:53.802Z,3.43
2023-10-23T22:06:21.864Z,3.20
2023-10-23T22:08:50.300Z,3.60
2023-10-23T22:11:19.663Z,3.27
2023-10-23T22:13:47.805Z,3.43
2023-10-23T22:16:15.692Z,2.93
2023-10-23T22:18:43.486Z,2.90
2023-10-23T22:21:11.435Z,2.60
2023-10-23T22:23:39.187Z,2.93
2023-10-23T22:26:07.053Z,2.80
2023-10-23T22:28:34.777Z,3.13
2023-10-23T22:31:02.931Z,3.07
2023-10-23T22:33:31.928Z,3.13
2023-10-23T22:35:59.758Z,2.87
2023-10-23T22:38:27.546Z,2.90
2023-10-23T22:40:55.345Z,2.97
2023-10-23T22:43:23.103Z,3.40
2023-10-23T22:45:59.834Z,2.40
2023-10-23T22:48:30.957Z,3.10
2023-10-23T22:50:59.145Z,2.83
2023-10-23T22:53:27.062Z,2.90
2023-10-23T22:55:55.326Z,2.63
2023-10-23T22:58:32.766Z,2.30
2023-10-23T23:01:00.894Z,2.73
2023-10-23T23:03:29.178Z,2.90
2023-10-23T23:06:06.267Z,2.90
2023-10-23T23:08:38.737Z,2.77
2023-10-23T23:11:06.949Z,2.57
2023-10-23T23:13:34.885Z,2.83
2023-10-23T23:16:06.358Z,2.77
2023-10-23T23:18:35.249Z,2.37
2023-10-23T23:21:04.403Z,2.97
2023-10-23T23:23:32.154Z,2.80
2023-10-23T23:25:59.879Z,2.70
2023-10-23T23:28:27.667Z,2.40
2023-10-23T23:30:55.504Z,2.50
2023-10-23T23:33:23.296Z,2.80
2023-10-23T23:35:53.768Z,2.83
2023-10-23T23:38:21.492Z,3.00
2023-10-23T23:40:49.765Z,3.07
2023-10-23T23:43:17.535Z,2.60
2023-10-23T23:45:45.871Z,2.87
2023-10-23T23:48:15.549Z,3.00
2023-10-23T23:50:43.452Z,2.57
2023-10-23T23:53:11.247Z,2.93
2023-10-23T23:55:39.055Z,3.83
2023-10-23T23:58:06.824Z,2.50
